sensor_id;sensor_type;location;lat;lon;timestamp;temperature;humidity
21752;DHT22;11038;50.940;20.564;2022-09-09T00:00:21;16.50;99.90
21752;DHT22;11038;50.940;20.564;2022-09-09T00:02:20;16.50;99.90
21752;DHT22;11038;50.940;20.564;2022-09-09T00:04:38;16.50;99.90
21752;DHT22;11038;50.940;20.564;2022-09-09T00:07:55;16.50;99.90
21752;DHT22;11038;50.940;20.564;2022-09-09T00:09:35;16.60;99.90
21752;DHT22;11038;50.940;20.564;2022-09-09T00:11:15;16.60;99.90
21752;DHT22;11038;50.940;20.564;2022-09-09T00:14:46;16.60;99.90
21752;DHT22;11038;50.940;20.564;2022-09-09T00:16:32;16.60;99.90
21752;DHT22;11038;50.940;20.564;2022-09-09T00:20:16;16.60;99.90
21752;DHT22;11038;50.940;20.564;2022-09-09T00:22:17;16.60;99.90
21752;DHT22;11038;50.940;20.564;2022-09-09T00:23:55;16.60;99.90
21752;DHT22;11038;50.940;20.564;2022-09-09T00:25:28;16.70;99.90
21752;DHT22;11038;50.940;20.564;2022-09-09T00:31:08;16.70;99.90
21752;DHT22;11038;50.940;20.564;2022-09-09T00:32:44;16.70;99.90
21752;DHT22;11038;50.940;20.564;2022-09-09T00:34:21;16.70;99.90
21752;DHT22;11038;50.940;20.564;2022-09-09T00:35:59;16.80;99.90
21752;DHT22;11038;50.940;20.564;2022-09-09T00:37:32;16.70;99.90
21752;DHT22;11038;50.940;20.564;2022-09-09T00:39:09;16.70;99.90
21752;DHT22;11038;50.940;20.564;2022-09-09T00:43:28;16.70;99.90
21752;DHT22;11038;50.940;20.564;2022-09-09T00:50:53;16.70;99.90
21752;DHT22;11038;50.940;20.564;2022-09-09T00:52:39;16.70;99.90
21752;DHT22;11038;50.940;20.564;2022-09-09T00:56:13;16.80;99.90
21752;DHT22;11038;50.940;20.564;2022-09-09T00:57:46;16.80;99.90
21752;DHT22;11038;50.940;20.564;2022-09-09T01:01:22;16.80;99.90
21752;DHT22;11038;50.940;20.564;2022-09-09T01:04:52;16.80;99.90
21752;DHT22;11038;50.940;20.564;2022-09-09T01:06:31;16.80;99.90
21752;DHT22;11038;50.940;20.564;2022-09-09T01:08:09;16.80;99.90
21752;DHT22;11038;50.940;20.564;2022-09-09T01:09:51;16.80;99.90
21752;DHT22;11038;50.940;20.564;2022-09-09T01:11:32;16.90;99.90
21752;DHT22;11038;50.940;20.564;2022-09-09T01:13:20;16.90;99.90
21752;DHT22;11038;50.940;20.564;2022-09-09T01:16:40;16.90;99.90
21752;DHT22;11038;50.940;20.564;2022-09-09T01:18:15;17.00;99.90
21752;DHT22;11038;50.940;20.564;2022-09-09T01:19:55;17.00;99.90
21752;DHT22;11038;50.940;20.564;2022-09-09T01:27:16;17.10;99.90
21752;DHT22;11038;50.940;20.564;2022-09-09T01:28:51;17.20;99.90
21752;DHT22;11038;50.940;20.564;2022-09-09T01:30:24;17.20;99.90
21752;DHT22;11038;50.940;20.564;2022-09-09T01:32:02;17.20;99.90
21752;DHT22;11038;50.940;20.564;2022-09-09T01:33:55;17.30;99.90
21752;DHT22;11038;50.940;20.564;2022-09-09T01:35:32;17.30;99.90
21752;DHT22;11038;50.940;20.564;2022-09-09T01:37:17;17.30;99.90
21752;DHT22;11038;50.940;20.564;2022-09-09T01:38:50;17.30;99.90
21752;DHT22;11038;50.940;20.564;2022-09-09T01:40:24;17.30;99.90
21752;DHT22;11038;50.940;20.564;2022-09-09T01:41:56;17.30;99.90
21752;DHT22;11038;50.940;20.564;2022-09-09T01:43:29;17.40;99.90
21752;DHT22;11038;50.940;20.564;2022-09-09T01:45:02;17.30;99.90
21752;DHT22;11038;50.940;20.564;2022-09-09T01:46:35;17.40;99.90
21752;DHT22;11038;50.940;20.564;2022-09-09T01:48:08;17.40;99.90
21752;DHT22;11038;50.940;20.564;2022-09-09T01:49:40;17.40;99.90
21752;DHT22;11038;50.940;20.564;2022-09-09T01:51:12;17.40;99.90
21752;DHT22;11038;50.940;20.564;2022-09-09T01:52:45;17.40;99.90
21752;DHT22;11038;50.940;20.564;2022-09-09T01:54:21;17.40;99.90
21752;DHT22;11038;50.940;20.564;2022-09-09T01:58:20;17.40;99.90
21752;DHT22;11038;50.940;20.564;2022-09-09T02:00:09;17.40;99.90
21752;DHT22;11038;50.940;20.564;2022-09-09T02:03:29;17.40;99.90
21752;DHT22;11038;50.940;20.564;2022-09-09T02:06:40;17.40;99.90
21752;DHT22;11038;50.940;20.564;2022-09-09T02:08:59;17.40;99.90
21752;DHT22;11038;50.940;20.564;2022-09-09T02:10:22;17.40;99.90
21752;DHT22;11038;50.940;20.564;2022-09-09T02:12:00;17.40;99.90
21752;DHT22;11038;50.940;20.564;2022-09-09T02:13:38;17.40;99.90
21752;DHT22;11038;50.940;20.564;2022-09-09T02:15:17;17.40;99.90
21752;DHT22;11038;50.940;20.564;2022-09-09T02:16:55;17.50;99.90
21752;DHT22;11038;50.940;20.564;2022-09-09T02:18:57;17.40;99.90
21752;DHT22;11038;50.940;20.564;2022-09-09T02:20:36;17.40;99.90
21752;DHT22;11038;50.940;20.564;2022-09-09T02:22:10;17.50;99.90
21752;DHT22;11038;50.940;20.564;2022-09-09T02:23:43;17.50;99.90
21752;DHT22;11038;50.940;20.564;2022-09-09T02:25:19;17.50;99.90
21752;DHT22;11038;50.940;20.564;2022-09-09T02:26:54;17.50;99.90
21752;DHT22;11038;50.940;20.564;2022-09-09T02:28:30;17.50;99.90
21752;DHT22;11038;50.940;20.564;2022-09-09T02:30:06;17.50;99.90
21752;DHT22;11038;50.940;20.564;2022-09-09T02:31:38;17.50;99.90
21752;DHT22;11038;50.940;20.564;2022-09-09T02:33:12;17.50;99.90
21752;DHT22;11038;50.940;20.564;2022-09-09T02:34:50;17.40;99.90
21752;DHT22;11038;50.940;20.564;2022-09-09T02:36:28;17.40;99.90
21752;DHT22;11038;50.940;20.564;2022-09-09T02:38:04;17.40;99.90
21752;DHT22;11038;50.940;20.564;2022-09-09T02:39:39;17.40;99.90
21752;DHT22;11038;50.940;20.564;2022-09-09T02:41:12;17.40;99.90
21752;DHT22;11038;50.940;20.564;2022-09-09T02:42:47;17.40;99.90
21752;DHT22;11038;50.940;20.564;2022-09-09T02:44:20;17.40;99.90
21752;DHT22;11038;50.940;20.564;2022-09-09T02:49:06;17.40;99.90
21752;DHT22;11038;50.940;20.564;2022-09-09T02:50:49;17.40;99.90
21752;DHT22;11038;50.940;20.564;2022-09-09T02:52:34;17.40;99.90
21752;DHT22;11038;50.940;20.564;2022-09-09T02:54:17;17.40;99.90
21752;DHT22;11038;50.940;20.564;2022-09-09T02:56:09;17.40;99.90
21752;DHT22;11038;50.940;20.564;2022-09-09T02:57:52;17.40;99.90
21752;DHT22;11038;50.940;20.564;2022-09-09T02:59:25;17.40;99.90
21752;DHT22;11038;50.940;20.564;2022-09-09T03:00:58;17.40;99.90
21752;DHT22;11038;50.940;20.564;2022-09-09T03:02:33;17.40;99.90
21752;DHT22;11038;50.940;20.564;2022-09-09T03:04:05;17.40;99.90
21752;DHT22;11038;50.940;20.564;2022-09-09T03:05:37;17.40;99.90
21752;DHT22;11038;50.940;20.564;2022-09-09T03:07:11;17.40;99.90
21752;DHT22;11038;50.940;20.564;2022-09-09T03:08:43;17.40;99.90
21752;DHT22;11038;50.940;20.564;2022-09-09T03:10:20;17.40;99.90
21752;DHT22;11038;50.940;20.564;2022-09-09T03:11:52;17.30;99.90
21752;DHT22;11038;50.940;20.564;2022-09-09T03:13:26;17.40;99.90
21752;DHT22;11038;50.940;20.564;2022-09-09T03:14:59;17.30;99.90
21752;DHT22;11038;50.940;20.564;2022-09-09T03:16:31;17.30;99.90
21752;DHT22;11038;50.940;20.564;2022-09-09T03:18:05;17.30;99.90
21752;DHT22;11038;50.940;20.564;2022-09-09T03:19:37;17.30;99.90
21752;DHT22;11038;50.940;20.564;2022-09-09T03:21:09;17.30;99.90
21752;DHT22;11038;50.940;20.564;2022-09-09T03:22:42;17.30;99.90
21752;DHT22;11038;50.940;20.564;2022-09-09T03:24:16;17.30;99.90
21752;DHT22;11038;50.940;20.564;2022-09-09T03:25:49;17.30;99.90
21752;DHT22;11038;50.940;20.564;2022-09-09T03:27:21;17.30;99.90
21752;DHT22;11038;50.940;20.564;2022-09-09T03:28:54;17.30;99.90
21752;DHT22;11038;50.940;20.564;2022-09-09T03:30:26;17.30;99.90
21752;DHT22;11038;50.940;20.564;2022-09-09T03:31:59;17.30;99.90
21752;DHT22;11038;50.940;20.564;2022-09-09T03:33:31;17.30;99.90
21752;DHT22;11038;50.940;20.564;2022-09-09T03:35:03;17.30;99.90
21752;DHT22;11038;50.940;20.564;2022-09-09T03:36:36;17.30;99.90
21752;DHT22;11038;50.940;20.564;2022-09-09T03:38:09;17.30;99.90
21752;DHT22;11038;50.940;20.564;2022-09-09T03:39:41;17.30;99.90
21752;DHT22;11038;50.940;20.564;2022-09-09T03:41:13;17.30;99.90
21752;DHT22;11038;50.940;20.564;2022-09-09T03:42:46;17.30;99.90
21752;DHT22;11038;50.940;20.564;2022-09-09T03:44:19;17.30;99.90
21752;DHT22;11038;50.940;20.564;2022-09-09T03:45:51;17.30;99.90
21752;DHT22;11038;50.940;20.564;2022-09-09T03:47:24;17.30;99.90
21752;DHT22;11038;50.940;20.564;2022-09-09T03:48:56;17.20;99.90
21752;DHT22;11038;50.940;20.564;2022-09-09T03:50:28;17.20;99.90
21752;DHT22;11038;50.940;20.564;2022-09-09T03:52:01;17.20;99.90
21752;DHT22;11038;50.940;20.564;2022-09-09T03:53:34;17.20;99.90
21752;DHT22;11038;50.940;20.564;2022-09-09T03:55:06;17.20;99.90
21752;DHT22;11038;50.940;20.564;2022-09-09T03:56:39;17.20;99.90
21752;DHT22;11038;50.940;20.564;2022-09-09T03:58:13;17.20;99.90
21752;DHT22;11038;50.940;20.564;2022-09-09T03:59:46;17.20;99.90
21752;DHT22;11038;50.940;20.564;2022-09-09T04:01:19;17.10;99.90
21752;DHT22;11038;50.940;20.564;2022-09-09T04:02:51;17.10;99.90
21752;DHT22;11038;50.940;20.564;2022-09-09T04:04:25;17.10;99.90
21752;DHT22;11038;50.940;20.564;2022-09-09T04:05:59;17.10;99.90
21752;DHT22;11038;50.940;20.564;2022-09-09T04:07:32;17.00;99.90
21752;DHT22;11038;50.940;20.564;2022-09-09T04:09:04;17.00;99.90
21752;DHT22;11038;50.940;20.564;2022-09-09T04:10:36;17.00;99.90
21752;DHT22;11038;50.940;20.564;2022-09-09T04:12:08;17.00;99.90
21752;DHT22;11038;50.940;20.564;2022-09-09T04:13:43;17.00;99.90
21752;DHT22;11038;50.940;20.564;2022-09-09T04:15:16;16.90;99.90
21752;DHT22;11038;50.940;20.564;2022-09-09T04:16:50;16.90;99.90
21752;DHT22;11038;50.940;20.564;2022-09-09T04:18:22;16.90;99.90
21752;DHT22;11038;50.940;20.564;2022-09-09T04:19:55;16.80;99.90
21752;DHT22;11038;50.940;20.564;2022-09-09T04:21:28;16.80;99.90
21752;DHT22;11038;50.940;20.564;2022-09-09T04:23:00;16.80;99.90
21752;DHT22;11038;50.940;20.564;2022-09-09T04:24:33;16.80;99.90
21752;DHT22;11038;50.940;20.564;2022-09-09T04:26:05;16.80;99.90
21752;DHT22;11038;50.940;20.564;2022-09-09T04:27:37;16.70;99.90
21752;DHT22;11038;50.940;20.564;2022-09-09T04:29:10;16.80;99.90
21752;DHT22;11038;50.940;20.564;2022-09-09T04:30:42;16.80;99.90
21752;DHT22;11038;50.940;20.564;2022-09-09T04:32:15;16.80;99.90
21752;DHT22;11038;50.940;20.564;2022-09-09T04:33:47;16.70;99.90
21752;DHT22;11038;50.940;20.564;2022-09-09T04:35:21;16.70;99.90
21752;DHT22;11038;50.940;20.564;2022-09-09T04:36:53;16.70;99.90
21752;DHT22;11038;50.940;20.564;2022-09-09T04:38:25;16.80;99.90
21752;DHT22;11038;50.940;20.564;2022-09-09T04:39:57;16.80;99.90
21752;DHT22;11038;50.940;20.564;2022-09-09T04:41:31;16.70;99.90
21752;DHT22;11038;50.940;20.564;2022-09-09T04:43:03;16.80;99.90
21752;DHT22;11038;50.940;20.564;2022-09-09T04:44:43;16.80;99.90
21752;DHT22;11038;50.940;20.564;2022-09-09T04:46:15;16.80;99.90
21752;DHT22;11038;50.940;20.564;2022-09-09T04:47:50;16.80;99.90
21752;DHT22;11038;50.940;20.564;2022-09-09T04:49:22;16.80;99.90
21752;DHT22;11038;50.940;20.564;2022-09-09T04:50:56;16.80;99.90
21752;DHT22;11038;50.940;20.564;2022-09-09T04:52:35;16.90;99.90
21752;DHT22;11038;50.940;20.564;2022-09-09T04:54:08;16.90;99.90
21752;DHT22;11038;50.940;20.564;2022-09-09T04:55:40;16.80;99.90
21752;DHT22;11038;50.940;20.564;2022-09-09T04:57:13;16.90;99.90
21752;DHT22;11038;50.940;20.564;2022-09-09T04:58:49;16.90;99.90
21752;DHT22;11038;50.940;20.564;2022-09-09T05:00:21;16.90;99.90
21752;DHT22;11038;50.940;20.564;2022-09-09T05:01:55;16.90;99.90
21752;DHT22;11038;50.940;20.564;2022-09-09T05:03:29;16.90;99.90
21752;DHT22;11038;50.940;20.564;2022-09-09T05:05:01;16.90;99.90
21752;DHT22;11038;50.940;20.564;2022-09-09T05:06:34;16.90;99.90
21752;DHT22;11038;50.940;20.564;2022-09-09T05:08:08;16.90;99.90
21752;DHT22;11038;50.940;20.564;2022-09-09T05:09:41;17.00;99.90
21752;DHT22;11038;50.940;20.564;2022-09-09T05:12:52;17.00;99.90
21752;DHT22;11038;50.940;20.564;2022-09-09T05:14:25;17.00;99.90
21752;DHT22;11038;50.940;20.564;2022-09-09T05:15:59;17.00;99.90
21752;DHT22;11038;50.940;20.564;2022-09-09T05:17:31;17.00;99.90
21752;DHT22;11038;50.940;20.564;2022-09-09T05:19:03;17.00;99.90
21752;DHT22;11038;50.940;20.564;2022-09-09T05:20:35;17.10;99.90
21752;DHT22;11038;50.940;20.564;2022-09-09T05:22:08;17.10;99.90
21752;DHT22;11038;50.940;20.564;2022-09-09T05:23:40;17.10;99.90
21752;DHT22;11038;50.940;20.564;2022-09-09T05:25:12;17.20;99.90
21752;DHT22;11038;50.940;20.564;2022-09-09T05:26:44;17.20;99.90
21752;DHT22;11038;50.940;20.564;2022-09-09T05:28:16;17.20;99.90
21752;DHT22;11038;50.940;20.564;2022-09-09T05:29:49;17.20;99.90
21752;DHT22;11038;50.940;20.564;2022-09-09T05:31:21;17.30;99.90
21752;DHT22;11038;50.940;20.564;2022-09-09T05:32:55;17.30;99.90
21752;DHT22;11038;50.940;20.564;2022-09-09T05:34:28;17.30;99.90
21752;DHT22;11038;50.940;20.564;2022-09-09T05:36:02;17.30;99.90
21752;DHT22;11038;50.940;20.564;2022-09-09T05:37:36;17.30;99.90
21752;DHT22;11038;50.940;20.564;2022-09-09T05:39:08;17.40;99.90
21752;DHT22;11038;50.940;20.564;2022-09-09T05:40:46;17.40;99.90
21752;DHT22;11038;50.940;20.564;2022-09-09T05:42:19;17.40;99.90
21752;DHT22;11038;50.940;20.564;2022-09-09T05:43:52;17.40;99.90
21752;DHT22;11038;50.940;20.564;2022-09-09T05:45:24;17.40;99.90
21752;DHT22;11038;50.940;20.564;2022-09-09T05:46:57;17.40;99.90
21752;DHT22;11038;50.940;20.564;2022-09-09T05:48:31;17.40;99.90
21752;DHT22;11038;50.940;20.564;2022-09-09T05:50:05;17.50;99.90
21752;DHT22;11038;50.940;20.564;2022-09-09T05:51:37;17.50;99.90
21752;DHT22;11038;50.940;20.564;2022-09-09T05:53:09;17.50;99.90
21752;DHT22;11038;50.940;20.564;2022-09-09T05:54:42;17.60;99.90
21752;DHT22;11038;50.940;20.564;2022-09-09T05:56:16;17.70;99.90
21752;DHT22;11038;50.940;20.564;2022-09-09T05:57:49;17.70;99.90
21752;DHT22;11038;50.940;20.564;2022-09-09T05:59:23;17.90;99.90
21752;DHT22;11038;50.940;20.564;2022-09-09T06:01:08;18.50;99.90
21752;DHT22;11038;50.940;20.564;2022-09-09T06:02:42;19.00;99.90
21752;DHT22;11038;50.940;20.564;2022-09-09T06:04:15;19.90;99.90
21752;DHT22;11038;50.940;20.564;2022-09-09T06:05:57;20.00;99.90
21752;DHT22;11038;50.940;20.564;2022-09-09T06:07:35;20.00;99.90
21752;DHT22;11038;50.940;20.564;2022-09-09T06:09:09;20.10;99.90
21752;DHT22;11038;50.940;20.564;2022-09-09T06:10:42;20.30;99.90
21752;DHT22;11038;50.940;20.564;2022-09-09T06:12:15;20.20;99.90
21752;DHT22;11038;50.940;20.564;2022-09-09T06:13:47;20.20;99.90
21752;DHT22;11038;50.940;20.564;2022-09-09T06:15:22;20.20;99.90
21752;DHT22;11038;50.940;20.564;2022-09-09T06:16:54;20.20;99.90
21752;DHT22;11038;50.940;20.564;2022-09-09T06:18:26;20.10;99.90
21752;DHT22;11038;50.940;20.564;2022-09-09T06:19:58;20.10;99.90
21752;DHT22;11038;50.940;20.564;2022-09-09T06:21:34;20.10;99.90
21752;DHT22;11038;50.940;20.564;2022-09-09T06:23:08;20.20;99.90
21752;DHT22;11038;50.940;20.564;2022-09-09T06:24:41;20.10;99.90
21752;DHT22;11038;50.940;20.564;2022-09-09T06:26:14;19.90;99.90
21752;DHT22;11038;50.940;20.564;2022-09-09T06:27:49;19.90;99.90
21752;DHT22;11038;50.940;20.564;2022-09-09T06:29:21;19.70;99.90
21752;DHT22;11038;50.940;20.564;2022-09-09T06:30:57;19.70;99.90
21752;DHT22;11038;50.940;20.564;2022-09-09T06:32:33;19.70;99.90
21752;DHT22;11038;50.940;20.564;2022-09-09T06:34:08;19.70;99.90
21752;DHT22;11038;50.940;20.564;2022-09-09T06:35:40;19.90;99.90
21752;DHT22;11038;50.940;20.564;2022-09-09T06:37:13;20.10;99.90
21752;DHT22;11038;50.940;20.564;2022-09-09T06:38:45;20.10;99.90
21752;DHT22;11038;50.940;20.564;2022-09-09T06:40:18;20.10;99.90
21752;DHT22;11038;50.940;20.564;2022-09-09T06:41:50;20.00;99.90
21752;DHT22;11038;50.940;20.564;2022-09-09T06:43:25;19.90;99.90
21752;DHT22;11038;50.940;20.564;2022-09-09T06:44:58;19.80;99.90
21752;DHT22;11038;50.940;20.564;2022-09-09T06:46:30;19.70;99.90
21752;DHT22;11038;50.940;20.564;2022-09-09T06:48:33;19.80;99.90
21752;DHT22;11038;50.940;20.564;2022-09-09T06:50:06;20.00;99.90
21752;DHT22;11038;50.940;20.564;2022-09-09T06:51:39;20.10;99.90
21752;DHT22;11038;50.940;20.564;2022-09-09T06:53:16;20.10;99.90
21752;DHT22;11038;50.940;20.564;2022-09-09T06:54:50;20.00;99.90
21752;DHT22;11038;50.940;20.564;2022-09-09T06:56:24;19.90;99.90
21752;DHT22;11038;50.940;20.564;2022-09-09T06:57:56;19.90;99.90
21752;DHT22;11038;50.940;20.564;2022-09-09T06:59:28;19.90;99.90
21752;DHT22;11038;50.940;20.564;2022-09-09T07:01:05;19.90;99.90
21752;DHT22;11038;50.940;20.564;2022-09-09T07:02:38;19.90;99.90
21752;DHT22;11038;50.940;20.564;2022-09-09T07:04:11;19.80;99.90
21752;DHT22;11038;50.940;20.564;2022-09-09T07:05:53;19.80;99.90
21752;DHT22;11038;50.940;20.564;2022-09-09T07:07:25;19.90;99.90
21752;DHT22;11038;50.940;20.564;2022-09-09T07:08:59;20.20;99.90
21752;DHT22;11038;50.940;20.564;2022-09-09T07:10:35;20.30;99.90
21752;DHT22;11038;50.940;20.564;2022-09-09T07:12:07;20.40;99.90
21752;DHT22;11038;50.940;20.564;2022-09-09T07:13:39;20.50;99.90
21752;DHT22;11038;50.940;20.564;2022-09-09T07:15:12;20.60;99.90
21752;DHT22;11038;50.940;20.564;2022-09-09T07:16:45;21.10;99.90
21752;DHT22;11038;50.940;20.564;2022-09-09T07:18:18;21.50;99.90
21752;DHT22;11038;50.940;20.564;2022-09-09T07:19:51;22.10;99.90
21752;DHT22;11038;50.940;20.564;2022-09-09T07:21:25;22.60;99.90
21752;DHT22;11038;50.940;20.564;2022-09-09T07:22:58;22.80;99.90
21752;DHT22;11038;50.940;20.564;2022-09-09T07:24:30;22.80;99.90
21752;DHT22;11038;50.940;20.564;2022-09-09T07:26:06;23.10;99.90
21752;DHT22;11038;50.940;20.564;2022-09-09T07:27:40;23.30;99.90
21752;DHT22;11038;50.940;20.564;2022-09-09T07:29:12;23.40;99.90
21752;DHT22;11038;50.940;20.564;2022-09-09T07:30:58;23.60;99.90
21752;DHT22;11038;50.940;20.564;2022-09-09T07:32:35;24.00;99.90
21752;DHT22;11038;50.940;20.564;2022-09-09T07:34:07;24.20;99.90
21752;DHT22;11038;50.940;20.564;2022-09-09T07:35:40;24.20;99.90
21752;DHT22;11038;50.940;20.564;2022-09-09T07:37:14;24.30;99.90
21752;DHT22;11038;50.940;20.564;2022-09-09T07:38:47;24.20;99.90
21752;DHT22;11038;50.940;20.564;2022-09-09T07:40:23;24.20;99.90
21752;DHT22;11038;50.940;20.564;2022-09-09T07:41:55;24.20;99.90
21752;DHT22;11038;50.940;20.564;2022-09-09T07:43:27;24.40;99.90
21752;DHT22;11038;50.940;20.564;2022-09-09T07:44:59;24.80;99.90
21752;DHT22;11038;50.940;20.564;2022-09-09T07:46:32;25.10;99.20
21752;DHT22;11038;50.940;20.564;2022-09-09T07:48:05;25.30;98.60
21752;DHT22;11038;50.940;20.564;2022-09-09T07:49:37;25.20;97.70
21752;DHT22;11038;50.940;20.564;2022-09-09T07:51:10;25.10;97.10
21752;DHT22;11038;50.940;20.564;2022-09-09T07:52:48;24.90;96.60
21752;DHT22;11038;50.940;20.564;2022-09-09T07:54:21;24.80;96.60
21752;DHT22;11038;50.940;20.564;2022-09-09T07:55:55;24.60;96.60
21752;DHT22;11038;50.940;20.564;2022-09-09T07:57:34;24.80;96.40
21752;DHT22;11038;50.940;20.564;2022-09-09T07:59:08;24.70;96.70
21752;DHT22;11038;50.940;20.564;2022-09-09T08:00:41;24.50;96.60
21752;DHT22;11038;50.940;20.564;2022-09-09T08:02:15;24.50;96.30
21752;DHT22;11038;50.940;20.564;2022-09-09T08:03:52;24.30;96.50
21752;DHT22;11038;50.940;20.564;2022-09-09T08:05:31;24.20;97.20
21752;DHT22;11038;50.940;20.564;2022-09-09T08:07:03;24.00;97.10
21752;DHT22;11038;50.940;20.564;2022-09-09T08:08:36;23.80;97.40
21752;DHT22;11038;50.940;20.564;2022-09-09T08:10:09;23.70;97.90
21752;DHT22;11038;50.940;20.564;2022-09-09T08:11:42;24.00;98.20
21752;DHT22;11038;50.940;20.564;2022-09-09T08:13:14;24.40;98.30
21752;DHT22;11038;50.940;20.564;2022-09-09T08:14:49;24.80;97.70
21752;DHT22;11038;50.940;20.564;2022-09-09T08:16:24;25.10;96.90
21752;DHT22;11038;50.940;20.564;2022-09-09T08:17:58;25.30;95.90
21752;DHT22;11038;50.940;20.564;2022-09-09T08:19:30;25.70;95.10
21752;DHT22;11038;50.940;20.564;2022-09-09T08:21:06;25.90;94.40
21752;DHT22;11038;50.940;20.564;2022-09-09T08:22:40;26.40;94.40
21752;DHT22;11038;50.940;20.564;2022-09-09T08:24:13;26.40;94.00
21752;DHT22;11038;50.940;20.564;2022-09-09T08:25:46;26.40;92.50
21752;DHT22;11038;50.940;20.564;2022-09-09T08:27:20;26.30;91.90
21752;DHT22;11038;50.940;20.564;2022-09-09T08:28:53;25.90;91.50
21752;DHT22;11038;50.940;20.564;2022-09-09T08:30:27;25.80;91.10
21752;DHT22;11038;50.940;20.564;2022-09-09T08:31:59;26.00;91.30
21752;DHT22;11038;50.940;20.564;2022-09-09T08:33:31;25.70;91.60
21752;DHT22;11038;50.940;20.564;2022-09-09T08:35:04;25.40;91.20
21752;DHT22;11038;50.940;20.564;2022-09-09T08:36:40;25.10;91.30
21752;DHT22;11038;50.940;20.564;2022-09-09T08:38:14;24.80;91.60
21752;DHT22;11038;50.940;20.564;2022-09-09T08:39:46;24.60;92.20
21752;DHT22;11038;50.940;20.564;2022-09-09T08:43:21;25.10;92.70
21752;DHT22;11038;50.940;20.564;2022-09-09T08:44:59;25.40;92.10
21752;DHT22;11038;50.940;20.564;2022-09-09T08:48:44;25.80;91.20
21752;DHT22;11038;50.940;20.564;2022-09-09T08:50:29;26.10;90.30
21752;DHT22;11038;50.940;20.564;2022-09-09T08:52:08;26.20;89.10
21752;DHT22;11038;50.940;20.564;2022-09-09T08:53:48;26.50;88.10
21752;DHT22;11038;50.940;20.564;2022-09-09T08:55:31;26.60;87.40
21752;DHT22;11038;50.940;20.564;2022-09-09T08:57:24;26.50;86.00
21752;DHT22;11038;50.940;20.564;2022-09-09T08:59:00;26.40;86.50
21752;DHT22;11038;50.940;20.564;2022-09-09T09:04:41;25.70;88.50
21752;DHT22;11038;50.940;20.564;2022-09-09T09:11:22;26.20;86.30
21752;DHT22;11038;50.940;20.564;2022-09-09T09:12:55;26.50;86.60
21752;DHT22;11038;50.940;20.564;2022-09-09T09:14:29;26.60;85.80
21752;DHT22;11038;50.940;20.564;2022-09-09T09:17:55;27.10;85.00
21752;DHT22;11038;50.940;20.564;2022-09-09T09:19:28;27.50;84.80
21752;DHT22;11038;50.940;20.564;2022-09-09T09:22:48;27.70;83.00
21752;DHT22;11038;50.940;20.564;2022-09-09T09:24:34;27.30;82.70
21752;DHT22;11038;50.940;20.564;2022-09-09T09:26:18;27.30;82.50
21752;DHT22;11038;50.940;20.564;2022-09-09T09:29:33;27.70;83.40
21752;DHT22;11038;50.940;20.564;2022-09-09T09:31:26;27.90;81.20
21752;DHT22;11038;50.940;20.564;2022-09-09T09:33:00;28.10;79.80
21752;DHT22;11038;50.940;20.564;2022-09-09T09:34:35;28.20;78.00
21752;DHT22;11038;50.940;20.564;2022-09-09T09:36:08;28.10;76.90
21752;DHT22;11038;50.940;20.564;2022-09-09T09:37:41;28.20;76.90
21752;DHT22;11038;50.940;20.564;2022-09-09T09:39:35;28.40;76.60
21752;DHT22;11038;50.940;20.564;2022-09-09T09:41:49;28.10;76.30
21752;DHT22;11038;50.940;20.564;2022-09-09T09:43:34;28.00;77.40
21752;DHT22;11038;50.940;20.564;2022-09-09T09:47:14;28.30;74.40
21752;DHT22;11038;50.940;20.564;2022-09-09T09:49:03;28.40;74.00
21752;DHT22;11038;50.940;20.564;2022-09-09T09:50:49;28.50;73.70
21752;DHT22;11038;50.940;20.564;2022-09-09T09:52:26;28.60;74.10
21752;DHT22;11038;50.940;20.564;2022-09-09T09:55:52;29.10;71.10
21752;DHT22;11038;50.940;20.564;2022-09-09T09:57:31;29.10;71.90
21752;DHT22;11038;50.940;20.564;2022-09-09T09:59:04;28.70;72.70
21752;DHT22;11038;50.940;20.564;2022-09-09T10:00:54;28.50;73.00
21752;DHT22;11038;50.940;20.564;2022-09-09T10:02:37;28.10;74.00
21752;DHT22;11038;50.940;20.564;2022-09-09T10:04:22;27.80;71.80
21752;DHT22;11038;50.940;20.564;2022-09-09T10:05:58;27.50;71.50
21752;DHT22;11038;50.940;20.564;2022-09-09T10:07:30;27.30;72.90
21752;DHT22;11038;50.940;20.564;2022-09-09T10:09:17;27.00;73.60
21752;DHT22;11038;50.940;20.564;2022-09-09T10:13:09;26.60;75.20
21752;DHT22;11038;50.940;20.564;2022-09-09T10:15:05;26.40;76.00
21752;DHT22;11038;50.940;20.564;2022-09-09T10:20:34;26.70;77.00
21752;DHT22;11038;50.940;20.564;2022-09-09T10:22:26;26.90;76.80
21752;DHT22;11038;50.940;20.564;2022-09-09T10:26:32;27.00;76.90
21752;DHT22;11038;50.940;20.564;2022-09-09T10:28:37;27.20;75.10
21752;DHT22;11038;50.940;20.564;2022-09-09T10:32:49;27.30;74.20
21752;DHT22;11038;50.940;20.564;2022-09-09T10:35:02;27.30;73.70
21752;DHT22;11038;50.940;20.564;2022-09-09T10:36:48;27.00;74.40
21752;DHT22;11038;50.940;20.564;2022-09-09T10:42:14;26.60;75.00
21752;DHT22;11038;50.940;20.564;2022-09-09T10:46:17;26.40;76.30
21752;DHT22;11038;50.940;20.564;2022-09-09T10:48:20;26.30;75.90
21752;DHT22;11038;50.940;20.564;2022-09-09T10:52:43;26.30;77.00
21752;DHT22;11038;50.940;20.564;2022-09-09T10:54:32;26.10;77.70
21752;DHT22;11038;50.940;20.564;2022-09-09T10:56:08;26.10;77.30
21752;DHT22;11038;50.940;20.564;2022-09-09T10:58:04;26.40;77.20
21752;DHT22;11038;50.940;20.564;2022-09-09T10:59:46;26.40;76.90
21752;DHT22;11038;50.940;20.564;2022-09-09T11:03:22;26.40;76.90
21752;DHT22;11038;50.940;20.564;2022-09-09T11:08:12;26.50;76.10
21752;DHT22;11038;50.940;20.564;2022-09-09T11:09:32;26.20;77.20
21752;DHT22;11038;50.940;20.564;2022-09-09T11:11:17;26.00;77.90
21752;DHT22;11038;50.940;20.564;2022-09-09T11:12:59;26.20;78.00
21752;DHT22;11038;50.940;20.564;2022-09-09T11:14:45;26.20;77.70
21752;DHT22;11038;50.940;20.564;2022-09-09T11:16:59;26.40;77.20
21752;DHT22;11038;50.940;20.564;2022-09-09T11:18:38;26.60;76.30
21752;DHT22;11038;50.940;20.564;2022-09-09T11:20:15;26.70;75.10
21752;DHT22;11038;50.940;20.564;2022-09-09T11:21:49;26.90;75.50
21752;DHT22;11038;50.940;20.564;2022-09-09T11:23:38;27.20;75.20
21752;DHT22;11038;50.940;20.564;2022-09-09T11:25:19;27.50;74.40
21752;DHT22;11038;50.940;20.564;2022-09-09T11:27:20;27.80;74.10
21752;DHT22;11038;50.940;20.564;2022-09-09T11:31:54;28.10;72.00